sensor_id;sensor_type;location;lat;lon;timestamp;pressure;altitude;pressure_sealevel;temperature;humidity
66430;BME280;53242;51.694;10.006;2022-09-13T00:01:52;99166.34;;;16.33;64.18
66430;BME280;53242;51.694;10.006;2022-09-13T00:04:15;99161.50;;;16.30;64.36
66430;BME280;53242;51.694;10.006;2022-09-13T00:06:37;99152.38;;;16.26;64.63
66430;BME280;53242;51.694;10.006;2022-09-13T00:09:00;99140.09;;;16.25;64.46
66430;BME280;53242;51.694;10.006;2022-09-13T00:11:24;99136.06;;;16.22;64.48
66430;BME280;53242;51.694;10.006;2022-09-13T00:13:47;99129.03;;;16.16;65.10
66430;BME280;53242;51.694;10.006;2022-09-13T00:16:11;99130.09;;;16.15;65.34
66430;BME280;53242;51.694;10.006;2022-09-13T00:18:34;99134.19;;;16.06;65.79
66430;BME280;53242;51.694;10.006;2022-09-13T00:21:11;99134.75;;;16.08;65.93
66430;BME280;53242;51.694;10.006;2022-09-13T00:23:35;99141.94;;;16.07;65.71
66430;BME280;53242;51.694;10.006;2022-09-13T00:26:06;99134.09;;;16.01;66.12
66430;BME280;53242;51.694;10.006;2022-09-13T00:28:29;99132.34;;;16.06;65.89
66430;BME280;53242;51.694;10.006;2022-09-13T00:30:51;99133.13;;;16.07;65.75
66430;BME280;53242;51.694;10.006;2022-09-13T00:33:14;99138.72;;;16.05;65.95
66430;BME280;53242;51.694;10.006;2022-09-13T00:35:36;99141.84;;;16.02;66.02
66430;BME280;53242;51.694;10.006;2022-09-13T00:37:59;99140.09;;;16.08;65.89
66430;BME280;53242;51.694;10.006;2022-09-13T00:40:23;99143.00;;;16.06;65.86
66430;BME280;53242;51.694;10.006;2022-09-13T00:42:45;99145.41;;;16.08;65.42
66430;BME280;53242;51.694;10.006;2022-09-13T00:47:41;99144.53;;;16.02;65.89
66430;BME280;53242;51.694;10.006;2022-09-13T00:52:39;99145.94;;;15.93;65.67
66430;BME280;53242;51.694;10.006;2022-09-13T00:55:07;99129.16;;;15.92;65.80
66430;BME280;53242;51.694;10.006;2022-09-13T00:57:34;99123.75;;;15.87;66.25
66430;BME280;53242;51.694;10.006;2022-09-13T01:00:05;99114.72;;;15.88;66.33
66430;BME280;53242;51.694;10.006;2022-09-13T01:02:36;99098.50;;;15.90;66.13
66430;BME280;53242;51.694;10.006;2022-09-13T01:04:59;99096.09;;;15.88;66.24
66430;BME280;53242;51.694;10.006;2022-09-13T01:07:22;99103.84;;;15.90;66.39
66430;BME280;53242;51.694;10.006;2022-09-13T01:09:47;99106.59;;;15.95;66.11
66430;BME280;53242;51.694;10.006;2022-09-13T01:15:03;99093.78;;;15.80;66.57
66430;BME280;53242;51.694;10.006;2022-09-13T01:17:28;99093.56;;;15.82;66.65
66430;BME280;53242;51.694;10.006;2022-09-13T01:19:51;99088.81;;;15.84;66.53
66430;BME280;53242;51.694;10.006;2022-09-13T01:25:25;99072.94;;;15.89;66.42
66430;BME280;53242;51.694;10.006;2022-09-13T01:27:59;99071.91;;;15.90;66.37
66430;BME280;53242;51.694;10.006;2022-09-13T01:30:24;99065.53;;;15.91;66.15
66430;BME280;53242;51.694;10.006;2022-09-13T01:33:09;99057.78;;;15.89;66.31
66430;BME280;53242;51.694;10.006;2022-09-13T01:46:41;99048.13;;;16.00;66.28
66430;BME280;53242;51.694;10.006;2022-09-13T01:49:21;99054.22;;;15.84;66.92
66430;BME280;53242;51.694;10.006;2022-09-13T01:51:59;99054.22;;;15.84;66.81
66430;BME280;53242;51.694;10.006;2022-09-13T01:54:49;99057.00;;;15.77;67.05
66430;BME280;53242;51.694;10.006;2022-09-13T01:57:15;99049.97;;;15.71;67.26
66430;BME280;53242;51.694;10.006;2022-09-13T02:02:12;99053.84;;;15.63;67.42
66430;BME280;53242;51.694;10.006;2022-09-13T02:04:42;99052.78;;;15.64;67.53
66430;BME280;53242;51.694;10.006;2022-09-13T02:07:16;99048.94;;;15.72;67.24
66430;BME280;53242;51.694;10.006;2022-09-13T02:09:44;99050.59;;;15.61;67.50
66430;BME280;53242;51.694;10.006;2022-09-13T02:12:20;99046.16;;;15.50;67.82
66430;BME280;53242;51.694;10.006;2022-09-13T02:14:47;99038.09;;;15.44;68.27
66430;BME280;53242;51.694;10.006;2022-09-13T02:17:18;99038.78;;;15.40;68.41
66430;BME280;53242;51.694;10.006;2022-09-13T02:20:00;99029.38;;;15.49;67.88
66430;BME280;53242;51.694;10.006;2022-09-13T02:22:30;99021.53;;;15.42;68.25
66430;BME280;53242;51.694;10.006;2022-09-13T02:24:56;99027.34;;;15.39;68.56
66430;BME280;53242;51.694;10.006;2022-09-13T02:27:25;99026.97;;;15.48;68.25
66430;BME280;53242;51.694;10.006;2022-09-13T02:29:54;99039.13;;;15.43;68.17
66430;BME280;53242;51.694;10.006;2022-09-13T02:32:23;99031.03;;;15.38;68.56
66430;BME280;53242;51.694;10.006;2022-09-13T02:34:51;99027.91;;;15.41;68.38
66430;BME280;53242;51.694;10.006;2022-09-13T02:37:15;99028.72;;;15.42;68.45
66430;BME280;53242;51.694;10.006;2022-09-13T02:39:44;99019.78;;;15.48;68.13
66430;BME280;53242;51.694;10.006;2022-09-13T02:42:24;99025.09;;;15.48;68.57
66430;BME280;53242;51.694;10.006;2022-09-13T02:44:57;99019.56;;;15.50;68.02
66430;BME280;53242;51.694;10.006;2022-09-13T02:47:29;99019.22;;;15.46;68.16
66430;BME280;53242;51.694;10.006;2022-09-13T02:52:46;99030.28;;;15.55;68.23
66430;BME280;53242;51.694;10.006;2022-09-13T02:55:23;99031.66;;;15.57;68.27
66430;BME280;53242;51.694;10.006;2022-09-13T02:57:59;99031.97;;;15.61;68.03
66430;BME280;53242;51.694;10.006;2022-09-13T03:00:22;99042.69;;;15.66;68.00
66430;BME280;53242;51.694;10.006;2022-09-13T03:02:45;99035.06;;;15.70;67.73
66430;BME280;53242;51.694;10.006;2022-09-13T03:05:09;99031.19;;;15.77;67.69
66430;BME280;53242;51.694;10.006;2022-09-13T03:07:31;99031.56;;;15.81;67.58
66430;BME280;53242;51.694;10.006;2022-09-13T03:09:57;99026.09;;;15.88;67.45
66430;BME280;53242;51.694;10.006;2022-09-13T03:12:39;99030.69;;;15.92;67.27
66430;BME280;53242;51.694;10.006;2022-09-13T03:15:13;99019.81;;;15.94;67.35
66430;BME280;53242;51.694;10.006;2022-09-13T03:20:18;99023.44;;;16.05;67.18
66430;BME280;53242;51.694;10.006;2022-09-13T03:28:33;99021.91;;;16.09;67.53
66430;BME280;53242;51.694;10.006;2022-09-13T03:36:20;99013.84;;;16.21;67.71
66430;BME280;53242;51.694;10.006;2022-09-13T03:39:13;99012.22;;;16.20;68.23
66430;BME280;53242;51.694;10.006;2022-09-13T03:41:45;99014.09;;;16.19;68.05
66430;BME280;53242;51.694;10.006;2022-09-13T03:44:11;99021.81;;;16.21;68.31
66430;BME280;53242;51.694;10.006;2022-09-13T03:46:38;99022.41;;;16.23;68.32
66430;BME280;53242;51.694;10.006;2022-09-13T03:49:05;99039.09;;;16.18;68.58
66430;BME280;53242;51.694;10.006;2022-09-13T03:51:29;99019.81;;;16.11;68.90
66430;BME280;53242;51.694;10.006;2022-09-13T03:53:57;99016.09;;;16.12;69.23
66430;BME280;53242;51.694;10.006;2022-09-13T03:56:21;99012.38;;;16.13;68.99
66430;BME280;53242;51.694;10.006;2022-09-13T03:58:46;99007.38;;;16.17;68.89
66430;BME280;53242;51.694;10.006;2022-09-13T04:01:08;99002.31;;;16.15;68.91
66430;BME280;53242;51.694;10.006;2022-09-13T04:03:31;99003.69;;;16.18;68.94
66430;BME280;53242;51.694;10.006;2022-09-13T04:05:54;99003.44;;;16.19;69.14
66430;BME280;53242;51.694;10.006;2022-09-13T04:08:16;99001.25;;;16.16;69.58
66430;BME280;53242;51.694;10.006;2022-09-13T04:10:38;99005.69;;;16.10;70.08
66430;BME280;53242;51.694;10.006;2022-09-13T04:13:02;99004.97;;;16.15;69.70
66430;BME280;53242;51.694;10.006;2022-09-13T04:15:25;99010.06;;;16.17;69.93
66430;BME280;53242;51.694;10.006;2022-09-13T04:17:47;99018.50;;;16.14;70.12
66430;BME280;53242;51.694;10.006;2022-09-13T04:20:10;99029.06;;;16.08;70.20
66430;BME280;53242;51.694;10.006;2022-09-13T04:22:32;99028.59;;;16.11;69.98
66430;BME280;53242;51.694;10.006;2022-09-13T04:24:55;99032.47;;;16.04;70.08
66430;BME280;53242;51.694;10.006;2022-09-13T04:27:18;99025.94;;;16.11;70.02
66430;BME280;53242;51.694;10.006;2022-09-13T04:29:40;99036.59;;;16.11;69.92
66430;BME280;53242;51.694;10.006;2022-09-13T04:32:03;99035.38;;;16.02;70.36
66430;BME280;53242;51.694;10.006;2022-09-13T04:34:25;99031.66;;;16.03;70.48
66430;BME280;53242;51.694;10.006;2022-09-13T04:36:49;99019.56;;;15.95;71.00
66430;BME280;53242;51.694;10.006;2022-09-13T04:39:11;99019.09;;;15.99;70.86
66430;BME280;53242;51.694;10.006;2022-09-13T04:41:37;99013.78;;;15.99;71.11
66430;BME280;53242;51.694;10.006;2022-09-13T04:44:00;99005.22;;;15.97;71.38
66430;BME280;53242;51.694;10.006;2022-09-13T04:46:23;98992.84;;;15.90;72.26
66430;BME280;53242;51.694;10.006;2022-09-13T04:48:49;98993.94;;;15.89;72.39
66430;BME280;53242;51.694;10.006;2022-09-13T04:51:12;98986.09;;;15.83;72.19
66430;BME280;53242;51.694;10.006;2022-09-13T04:53:35;98974.41;;;15.84;72.05
66430;BME280;53242;51.694;10.006;2022-09-13T04:56:02;98980.06;;;15.87;71.97
66430;BME280;53242;51.694;10.006;2022-09-13T04:58:25;98982.63;;;15.82;71.80
66430;BME280;53242;51.694;10.006;2022-09-13T05:00:47;98969.41;;;15.87;71.25
66430;BME280;53242;51.694;10.006;2022-09-13T05:03:12;98977.72;;;15.91;71.47
66430;BME280;53242;51.694;10.006;2022-09-13T05:05:35;98995.59;;;15.95;71.10
66430;BME280;53242;51.694;10.006;2022-09-13T05:07:57;99000.28;;;16.05;71.17
66430;BME280;53242;51.694;10.006;2022-09-13T05:10:19;98993.94;;;16.06;71.42
66430;BME280;53242;51.694;10.006;2022-09-13T05:12:42;98989.22;;;16.14;71.33
66430;BME280;53242;51.694;10.006;2022-09-13T05:15:05;98980.19;;;16.15;71.54
66430;BME280;53242;51.694;10.006;2022-09-13T05:17:29;98986.81;;;16.12;71.92
66430;BME280;53242;51.694;10.006;2022-09-13T05:19:51;99004.72;;;16.17;71.72
66430;BME280;53242;51.694;10.006;2022-09-13T05:22:13;98997.63;;;16.22;71.65
66430;BME280;53242;51.694;10.006;2022-09-13T05:24:36;98992.28;;;16.22;71.40
66430;BME280;53242;51.694;10.006;2022-09-13T05:26:58;98994.09;;;16.17;71.28
66430;BME280;53242;51.694;10.006;2022-09-13T05:29:21;98989.00;;;16.15;71.54
66430;BME280;53242;51.694;10.006;2022-09-13T05:31:43;98977.00;;;16.13;71.66
66430;BME280;53242;51.694;10.006;2022-09-13T05:34:09;98968.00;;;16.19;71.62
66430;BME280;53242;51.694;10.006;2022-09-13T05:36:32;98966.63;;;16.16;72.20
66430;BME280;53242;51.694;10.006;2022-09-13T05:38:55;98971.00;;;16.22;72.00
66430;BME280;53242;51.694;10.006;2022-09-13T05:41:18;98966.06;;;16.31;72.07
66430;BME280;53242;51.694;10.006;2022-09-13T05:43:41;98973.06;;;16.37;71.96
66430;BME280;53242;51.694;10.006;2022-09-13T05:46:11;98972.16;;;16.49;71.33
66430;BME280;53242;51.694;10.006;2022-09-13T05:48:34;98981.59;;;16.56;71.43
66430;BME280;53242;51.694;10.006;2022-09-13T05:51:03;98973.41;;;16.63;71.58
66430;BME280;53242;51.694;10.006;2022-09-13T05:53:26;98974.53;;;16.67;71.77
66430;BME280;53242;51.694;10.006;2022-09-13T05:55:49;98962.56;;;16.70;72.04
66430;BME280;53242;51.694;10.006;2022-09-13T05:58:11;98967.44;;;16.78;71.98
66430;BME280;53242;51.694;10.006;2022-09-13T06:00:33;98971.97;;;16.77;72.35
66430;BME280;53242;51.694;10.006;2022-09-13T06:02:56;98972.19;;;16.71;72.49
66430;BME280;53242;51.694;10.006;2022-09-13T06:05:19;98971.84;;;16.67;72.16
66430;BME280;53242;51.694;10.006;2022-09-13T06:07:42;98965.28;;;16.53;72.11
66430;BME280;53242;51.694;10.006;2022-09-13T06:10:09;98961.81;;;16.52;71.61
66430;BME280;53242;51.694;10.006;2022-09-13T06:12:31;98957.84;;;16.55;71.65
66430;BME280;53242;51.694;10.006;2022-09-13T06:14:54;98960.50;;;16.55;71.40
66430;BME280;53242;51.694;10.006;2022-09-13T06:17:16;98972.53;;;16.57;71.35
66430;BME280;53242;51.694;10.006;2022-09-13T06:19:39;98967.75;;;16.59;71.17
66430;BME280;53242;51.694;10.006;2022-09-13T06:22:01;98966.16;;;16.58;70.70
66430;BME280;53242;51.694;10.006;2022-09-13T06:24:23;98959.97;;;16.53;70.54
66430;BME280;53242;51.694;10.006;2022-09-13T06:26:46;98970.81;;;16.46;70.53
66430;BME280;53242;51.694;10.006;2022-09-13T06:29:09;98966.00;;;16.48;70.42
66430;BME280;53242;51.694;10.006;2022-09-13T06:31:32;98970.63;;;16.53;70.23
66430;BME280;53242;51.694;10.006;2022-09-13T06:33:59;98971.47;;;16.58;69.98
66430;BME280;53242;51.694;10.006;2022-09-13T06:36:23;98976.06;;;16.63;70.07
66430;BME280;53242;51.694;10.006;2022-09-13T06:38:46;98978.56;;;16.70;69.85
66430;BME280;53242;51.694;10.006;2022-09-13T06:41:14;98973.72;;;16.67;70.14
66430;BME280;53242;51.694;10.006;2022-09-13T06:43:37;98982.97;;;16.81;69.55
66430;BME280;53242;51.694;10.006;2022-09-13T06:46:14;98983.28;;;16.85;69.53
66430;BME280;53242;51.694;10.006;2022-09-13T06:48:39;98974.59;;;16.95;69.53
66430;BME280;53242;51.694;10.006;2022-09-13T06:51:03;98973.50;;;16.90;69.43
66430;BME280;53242;51.694;10.006;2022-09-13T06:53:26;98966.41;;;17.01;69.22
66430;BME280;53242;51.694;10.006;2022-09-13T06:56:05;98968.09;;;17.07;68.91
66430;BME280;53242;51.694;10.006;2022-09-13T06:58:29;98972.31;;;17.03;68.97
66430;BME280;53242;51.694;10.006;2022-09-13T07:00:52;98973.16;;;17.09;68.98
66430;BME280;53242;51.694;10.006;2022-09-13T07:03:15;98968.66;;;17.09;68.86
66430;BME280;53242;51.694;10.006;2022-09-13T07:05:37;98972.94;;;17.11;68.93
66430;BME280;53242;51.694;10.006;2022-09-13T07:08:00;98970.28;;;17.11;68.90
66430;BME280;53242;51.694;10.006;2022-09-13T07:10:22;98980.41;;;17.14;69.09
66430;BME280;53242;51.694;10.006;2022-09-13T07:12:45;98979.75;;;17.23;68.72
66430;BME280;53242;51.694;10.006;2022-09-13T07:15:08;98976.91;;;17.35;68.62
66430;BME280;53242;51.694;10.006;2022-09-13T07:17:30;98977.00;;;17.46;68.77
66430;BME280;53242;51.694;10.006;2022-09-13T07:19:53;98976.50;;;17.49;68.69
66430;BME280;53242;51.694;10.006;2022-09-13T07:22:15;98975.50;;;17.55;68.75
66430;BME280;53242;51.694;10.006;2022-09-13T07:24:38;98975.63;;;17.70;68.64
66430;BME280;53242;51.694;10.006;2022-09-13T07:27:00;98981.63;;;17.83;68.79
66430;BME280;53242;51.694;10.006;2022-09-13T07:29:22;98982.00;;;17.97;68.70
66430;BME280;53242;51.694;10.006;2022-09-13T07:31:47;98978.09;;;18.10;68.74
66430;BME280;53242;51.694;10.006;2022-09-13T07:34:15;98988.59;;;18.21;68.44
66430;BME280;53242;51.694;10.006;2022-09-13T07:36:38;98994.25;;;18.30;68.64
66430;BME280;53242;51.694;10.006;2022-09-13T07:39:02;98994.03;;;18.37;68.60
66430;BME280;53242;51.694;10.006;2022-09-13T07:41:26;98992.75;;;18.45;68.11
66430;BME280;53242;51.694;10.006;2022-09-13T07:43:49;98992.25;;;18.53;68.13
66430;BME280;53242;51.694;10.006;2022-09-13T07:46:21;98988.31;;;18.71;67.76
66430;BME280;53242;51.694;10.006;2022-09-13T07:48:45;98984.47;;;18.99;66.69
66430;BME280;53242;51.694;10.006;2022-09-13T07:51:09;98990.09;;;19.08;66.77
66430;BME280;53242;51.694;10.006;2022-09-13T07:53:32;98983.44;;;19.11;66.77
66430;BME280;53242;51.694;10.006;2022-09-13T07:56:00;98990.38;;;19.12;66.54
66430;BME280;53242;51.694;10.006;2022-09-13T07:58:23;98989.88;;;19.20;66.44
66430;BME280;53242;51.694;10.006;2022-09-13T08:00:45;98997.09;;;19.19;66.76
66430;BME280;53242;51.694;10.006;2022-09-13T08:03:10;98996.56;;;19.22;66.72
66430;BME280;53242;51.694;10.006;2022-09-13T08:05:38;98997.41;;;19.33;66.62
66430;BME280;53242;51.694;10.006;2022-09-13T08:08:00;99004.66;;;19.53;66.14
66430;BME280;53242;51.694;10.006;2022-09-13T08:10:23;99005.19;;;19.61;65.97
66430;BME280;53242;51.694;10.006;2022-09-13T08:12:45;99004.16;;;19.67;65.54
66430;BME280;53242;51.694;10.006;2022-09-13T08:15:08;99003.31;;;19.71;65.40
66430;BME280;53242;51.694;10.006;2022-09-13T08:17:30;98998.25;;;19.80;65.04
66430;BME280;53242;51.694;10.006;2022-09-13T08:19:53;98991.03;;;19.86;64.85
66430;BME280;53242;51.694;10.006;2022-09-13T08:22:15;98993.72;;;20.07;64.50
66430;BME280;53242;51.694;10.006;2022-09-13T08:24:38;98997.47;;;20.21;64.11
66430;BME280;53242;51.694;10.006;2022-09-13T08:27:00;98975.72;;;20.43;63.68
66430;BME280;53242;51.694;10.006;2022-09-13T08:29:23;98979.94;;;20.70;62.73
66430;BME280;53242;51.694;10.006;2022-09-13T08:31:46;98972.94;;;20.74;62.32
66430;BME280;53242;51.694;10.006;2022-09-13T08:34:10;98972.13;;;20.74;62.23
66430;BME280;53242;51.694;10.006;2022-09-13T08:36:34;98973.00;;;20.48;61.89
66430;BME280;53242;51.694;10.006;2022-09-13T08:38:59;98977.53;;;20.53;61.86
66430;BME280;53242;51.694;10.006;2022-09-13T08:46:54;98983.72;;;20.53;61.73
66430;BME280;53242;51.694;10.006;2022-09-13T08:49:27;98992.28;;;20.56;61.61
66430;BME280;53242;51.694;10.006;2022-09-13T08:52:02;98986.94;;;20.50;61.05
66430;BME280;53242;51.694;10.006;2022-09-13T08:54:28;98993.13;;;20.46;61.28
66430;BME280;53242;51.694;10.006;2022-09-13T08:57:15;98994.19;;;20.50;61.09
66430;BME280;53242;51.694;10.006;2022-09-13T08:59:49;98994.44;;;20.48;61.19
66430;BME280;53242;51.694;10.006;2022-09-13T09:02:38;98990.19;;;20.37;60.37
66430;BME280;53242;51.694;10.006;2022-09-13T09:05:19;98993.13;;;20.46;61.42
66430;BME280;53242;51.694;10.006;2022-09-13T09:07:50;98992.59;;;20.38;61.33
66430;BME280;53242;51.694;10.006;2022-09-13T09:10:24;98988.28;;;20.37;61.92
66430;BME280;53242;51.694;10.006;2022-09-13T09:12:56;98990.72;;;20.39;61.72
66430;BME280;53242;51.694;10.006;2022-09-13T09:15:28;98994.19;;;20.40;61.65
66430;BME280;53242;51.694;10.006;2022-09-13T09:17:59;98987.50;;;20.37;61.87
66430;BME280;53242;51.694;10.006;2022-09-13T09:20:38;98985.59;;;20.43;61.31
66430;BME280;53242;51.694;10.006;2022-09-13T09:23:11;98988.25;;;20.53;61.74
66430;BME280;53242;51.694;10.006;2022-09-13T09:25:35;98985.75;;;20.88;61.31
66430;BME280;53242;51.694;10.006;2022-09-13T09:27:58;98985.94;;;21.07;60.75
66430;BME280;53242;51.694;10.006;2022-09-13T09:30:20;98989.16;;;21.09;60.59
66430;BME280;53242;51.694;10.006;2022-09-13T09:35:48;98979.56;;;21.42;59.70
66430;BME280;53242;51.694;10.006;2022-09-13T09:41:04;98979.66;;;21.72;59.50
66430;BME280;53242;51.694;10.006;2022-09-13T09:43:34;98980.97;;;21.74;59.35
66430;BME280;53242;51.694;10.006;2022-09-13T09:46:02;98977.94;;;21.86;58.76
66430;BME280;53242;51.694;10.006;2022-09-13T09:48:36;98984.81;;;21.97;58.29
66430;BME280;53242;51.694;10.006;2022-09-13T09:51:04;98977.25;;;21.99;57.85
66430;BME280;53242;51.694;10.006;2022-09-13T09:53:34;98968.75;;;22.16;57.83
66430;BME280;53242;51.694;10.006;2022-09-13T09:56:05;98969.53;;;22.22;
66430;BME280;53242;51.694;10.006;2022-09-13T09:58:39;98963.50;;;22.06;57.71
66430;BME280;53242;51.694;10.006;2022-09-13T10:01:02;98959.22;;;22.05;57.62
66430;BME280;53242;51.694;10.006;2022-09-13T10:03:28;98956.38;;;22.21;56.91
66430;BME280;53242;51.694;10.006;2022-09-13T10:06:03;98949.94;;;22.16;55.79
66430;BME280;53242;51.694;10.006;2022-09-13T10:08:29;98957.06;;;22.31;56.15
66430;BME280;53242;51.694;10.006;2022-09-13T10:10:54;98953.28;;;22.38;55.93
66430;BME280;53242;51.694;10.006;2022-09-13T10:13:20;98947.91;;;22.32;55.83
66430;BME280;53242;51.694;10.006;2022-09-13T10:18:16;98947.09;;;22.80;55.42
66430;BME280;53242;51.694;10.006;2022-09-13T10:20:39;98946.97;;;22.91;55.59
66430;BME280;53242;51.694;10.006;2022-09-13T10:23:17;98947.28;;;22.89;54.67
66430;BME280;53242;51.694;10.006;2022-09-13T10:25:53;98942.19;;;22.88;55.14
66430;BME280;53242;51.694;10.006;2022-09-13T10:28:17;98937.88;;;22.87;55.62
66430;BME280;53242;51.694;10.006;2022-09-13T10:33:03;98940.03;;;23.28;54.96
66430;BME280;53242;51.694;10.006;2022-09-13T10:35:28;98935.53;;;23.56;54.64
66430;BME280;53242;51.694;10.006;2022-09-13T10:37:51;98936.91;;;23.73;53.74
66430;BME280;53242;51.694;10.006;2022-09-13T10:42:38;98926.50;;;23.80;53.15
66430;BME280;53242;51.694;10.006;2022-09-13T10:45:04;98923.81;;;23.80;53.12
66430;BME280;53242;51.694;10.006;2022-09-13T10:47:38;98922.41;;;23.69;53.01
66430;BME280;53242;51.694;10.006;2022-09-13T10:52:44;98920.91;;;23.62;53.44
66430;BME280;53242;51.694;10.006;2022-09-13T10:55:26;98917.78;;;23.55;52.96
66430;BME280;53242;51.694;10.006;2022-09-13T11:00:34;98922.03;;;23.42;53.05
66430;BME280;53242;51.694;10.006;2022-09-13T11:11:38;98902.31;;;23.61;53.54
66430;BME280;53242;51.694;10.006;2022-09-13T11:14:16;98902.88;;;23.77;53.18
66430;BME280;53242;51.694;10.006;2022-09-13T11:19:47;98894.88;;;23.72;52.29
66430;BME280;53242;51.694;10.006;2022-09-13T11:25:08;98895.28;;;23.65;52.43
66430;BME280;53242;51.694;10.006;2022-09-13T11:27:53;98906.41;;;23.58;51.89
66430;BME280;53242;51.694;10.006;2022-09-13T11:30:23;98895.53;;;23.63;51.65
66430;BME280;53242;51.694;10.006;2022-09-13T11:32:50;98901.88;;;23.73;51.53
66430;BME280;53242;51.694;10.006;2022-09-13T11:38:24;98898.03;;;24.07;51.48
66430;BME280;53242;51.694;10.006;2022-09-13T11:44:18;98902.94;;;24.05;51.00
66430;BME280;53242;51.694;10.006;2022-09-13T11:52:39;98903.63;;;24.10;49.72
66430;BME280;53242;51.694;10.006;2022-09-13T11:57:51;98897.81;;;23.89;49.91
66430;BME280;53242;51.694;10.006;2022-09-13T12:02:48;98896.31;;;23.83;50.73
66430;BME280;53242;51.694;10.006;2022-09-13T12:05:16;98886.72;;;23.77;50.95
66430;BME280;53242;51.694;10.006;2022-09-13T12:10:26;98897.53;;;23.58;51.04
66430;BME280;53242;51.694;10.006;2022-09-13T12:12:51;98900.91;;;23.50;51.44
66430;BME280;53242;51.694;10.006;2022-09-13T12:15:21;98891.09;;;23.40;50.93
66430;BME280;53242;51.694;10.006;2022-09-13T12:17:49;98887.09;;;23.37;50.94
66430;BME280;53242;51.694;10.006;2022-09-13T12:20:32;98881.81;;;23.32;50.94
66430;BME280;53242;51.694;10.006;2022-09-13T12:23:00;98880.13;;;23.36;51.20
66430;BME280;53242;51.694;10.006;2022-09-13T12:25:24;98873.13;;;23.35;51.02
66430;BME280;53242;51.694;10.006;2022-09-13T12:28:09;98881.50;;;23.34;50.98
66430;BME280;53242;51.694;10.006;2022-09-13T12:30:55;98880.72;;;23.33;50.93
66430;BME280;53242;51.694;10.006;2022-09-13T12:33:18;98873.22;;;23.30;51.31
66430;BME280;53242;51.694;10.006;2022-09-13T12:35:51;98877.81;;;23.29;50.92
66430;BME280;53242;51.694;10.006;2022-09-13T12:57:41;98867.09;;;23.05;54.32
66430;BME280;53242;51.694;10.006;2022-09-13T13:03:05;98865.72;;;23.08;54.45
66430;BME280;53242;51.694;10.006;2022-09-13T13:05:37;98866.81;;;23.07;53.93
66430;BME280;53242;51.694;10.006;2022-09-13T13:08:03;98866.81;;;23.07;54.11
66430;BME280;53242;51.694;10.006;2022-09-13T13:10:31;98865.00;;;23.02;53.99
66430;BME280;53242;51.694;10.006;2022-09-13T13:12:54;98860.94;;;23.05;54.35
66430;BME280;53242;51.694;10.006;2022-09-13T13:17:52;98871.03;;;23.13;54.32
66430;BME280;53242;51.694;10.006;2022-09-13T13:20:45;98861.03;;;23.19;54.78
66430;BME280;53242;51.694;10.006;2022-09-13T13:25:54;98860.88;;;23.29;54.25
66430;BME280;53242;51.694;10.006;2022-09-13T13:33:52;98855.66;;;23.32;54.23
66430;BME280;53242;51.694;10.006;2022-09-13T13:38:47;98854.63;;;23.47;54.38
66430;BME280;53242;51.694;10.006;2022-09-13T13:43:54;98850.44;;;23.55;54.47
66430;BME280;53242;51.694;10.006;2022-09-13T13:46:29;98851.84;;;23.53;54.37
66430;BME280;53242;51.694;10.006;2022-09-13T13:48:52;98845.56;;;23.57;54.80
66430;BME280;53242;51.694;10.006;2022-09-13T13:51:20;98849.56;;;23.60;55.07
66430;BME280;53242;51.694;10.006;2022-09-13T13:53:57;98851.34;;;23.64;54.84
66430;BME280;53242;51.694;10.006;2022-09-13T13:56:43;98847.66;;;23.60;55.46
66430;BME280;53242;51.694;10.006;2022-09-13T13:59:18;98847.56;;;23.65;55.66
66430;BME280;53242;51.694;10.006;2022-09-13T14:01:46;98840.19;;;23.57;55.88
66430;BME280;53242;51.694;10.006;2022-09-13T14:04:36;98846.97;;;23.55;55.79
66430;BME280;53242;51.694;10.006;2022-09-13T14:07:12;98849.16;;;23.53;56.08
66430;BME280;53242;51.694;10.006;2022-09-13T14:10:03;98840.06;;;23.48;56.15
66430;BME280;53242;51.694;10.006;2022-09-13T14:18:43;98839.88;;;23.59;56.99
66430;BME280;53242;51.694;10.006;2022-09-13T14:21:26;98838.69;;;23.65;56.17
66430;BME280;53242;51.694;10.006;2022-09-13T14:23:50;98838.69;;;23.65;56.27
66430;BME280;53242;51.694;10.006;2022-09-13T14:26:27;98831.91;;;23.68;56.56
66430;BME280;53242;51.694;10.006;2022-09-13T14:28:49;98831.91;;;23.68;56.37
66430;BME280;53242;51.694;10.006;2022-09-13T14:31:17;98841.75;;;23.58;56.59
66430;BME280;53242;51.694;10.006;2022-09-13T14:33:41;98835.47;;;23.49;56.85
66430;BME280;53242;51.694;10.006;2022-09-13T14:36:15;98840.44;;;23.42;56.88
66430;BME280;53242;51.694;10.006;2022-09-13T14:38:49;98845.28;;;23.26;57.05
66430;BME280;53242;51.694;10.006;2022-09-13T14:41:20;98832.44;;;23.23;57.60
66430;BME280;53242;51.694;10.006;2022-09-13T14:43:45;98842.38;;;23.22;57.36
66430;BME280;53242;51.694;10.006;2022-09-13T14:46:13;98835.50;;;23.16;57.79
66430;BME280;53242;51.694;10.006;2022-09-13T14:48:41;98840.41;;;23.09;57.88
66430;BME280;53242;51.694;10.006;2022-09-13T14:51:23;98835.19;;;23.18;57.96
66430;BME280;53242;51.694;10.006;2022-09-13T14:53:51;98840.28;;;23.19;57.34
66430;BME280;53242;51.694;10.006;2022-09-13T14:56:21;98831.13;;;23.20;57.63
66430;BME280;53242;51.694;10.006;2022-09-13T14:58:52;98832.63;;;23.26;57.84
66430;BME280;53242;51.694;10.006;2022-09-13T15:01:19;98843.72;;;23.39;57.14
66430;BME280;53242;51.694;10.006;2022-09-13T15:03:44;98837.16;;;23.45;56.90
66430;BME280;53242;51.694;10.006;2022-09-13T15:06:21;98835.69;;;23.53;56.86
66430;BME280;53242;51.694;10.006;2022-09-13T15:08:46;98826.81;;;23.52;57.37
66430;BME280;53242;51.694;10.006;2022-09-13T15:11:14;98827.09;;;23.51;57.52
66430;BME280;53242;51.694;10.006;2022-09-13T15:13:36;98831.06;;;23.53;57.31
66430;BME280;53242;51.694;10.006;2022-09-13T15:16:24;98835.78;;;23.61;57.04